sensor_id;sensor_type;location;lat;lon;timestamp;temperature;humidity
49218;DHT22;35045;51.194;7.268;2023-05-10T00:01:50;13.10;99.90
49218;DHT22;35045;51.194;7.268;2023-05-10T00:04:16;13.20;99.90
49218;DHT22;35045;51.194;7.268;2023-05-10T00:06:42;13.20;99.90
49218;DHT22;35045;51.194;7.268;2023-05-10T00:09:09;13.10;99.90
49218;DHT22;35045;51.194;7.268;2023-05-10T00:11:35;13.00;99.90
49218;DHT22;35045;51.194;7.268;2023-05-10T00:14:01;12.90;99.90
49218;DHT22;35045;51.194;7.268;2023-05-10T00:16:27;12.90;99.90
49218;DHT22;35045;51.194;7.268;2023-05-10T00:18:53;12.90;99.90
49218;DHT22;35045;51.194;7.268;2023-05-10T00:21:19;12.80;99.90
49218;DHT22;35045;51.194;7.268;2023-05-10T00:23:45;12.80;99.90
49218;DHT22;35045;51.194;7.268;2023-05-10T00:26:12;12.80;99.90
49218;DHT22;35045;51.194;7.268;2023-05-10T00:28:38;12.80;99.90
49218;DHT22;35045;51.194;7.268;2023-05-10T00:31:04;12.80;99.90
49218;DHT22;35045;51.194;7.268;2023-05-10T00:33:30;12.80;99.90
49218;DHT22;35045;51.194;7.268;2023-05-10T00:35:56;12.80;99.90
49218;DHT22;35045;51.194;7.268;2023-05-10T00:38:22;12.80;99.90
49218;DHT22;35045;51.194;7.268;2023-05-10T00:40:48;12.80;99.90
49218;DHT22;35045;51.194;7.268;2023-05-10T00:43:14;12.80;99.90
49218;DHT22;35045;51.194;7.268;2023-05-10T00:45:41;12.80;99.90
49218;DHT22;35045;51.194;7.268;2023-05-10T00:48:07;12.80;99.90
49218;DHT22;35045;51.194;7.268;2023-05-10T00:50:34;12.90;99.90
49218;DHT22;35045;51.194;7.268;2023-05-10T00:53:01;12.90;99.90
49218;DHT22;35045;51.194;7.268;2023-05-10T00:55:28;12.90;99.90
49218;DHT22;35045;51.194;7.268;2023-05-10T00:57:54;12.90;99.90
49218;DHT22;35045;51.194;7.268;2023-05-10T01:00:21;13.00;99.90
49218;DHT22;35045;51.194;7.268;2023-05-10T01:02:47;13.00;99.90
49218;DHT22;35045;51.194;7.268;2023-05-10T01:05:15;13.00;99.90
49218;DHT22;35045;51.194;7.268;2023-05-10T01:07:41;13.00;99.90
49218;DHT22;35045;51.194;7.268;2023-05-10T01:10:08;13.00;99.90
49218;DHT22;35045;51.194;7.268;2023-05-10T01:12:38;13.10;99.90
49218;DHT22;35045;51.194;7.268;2023-05-10T01:15:09;13.20;99.90
49218;DHT22;35045;51.194;7.268;2023-05-10T01:17:38;13.20;99.90
49218;DHT22;35045;51.194;7.268;2023-05-10T01:20:06;13.20;99.90
49218;DHT22;35045;51.194;7.268;2023-05-10T01:26:23;13.10;99.90
49218;DHT22;35045;51.194;7.268;2023-05-10T01:29:18;13.00;99.90
49218;DHT22;35045;51.194;7.268;2023-05-10T01:32:30;12.90;99.90
49218;DHT22;35045;51.194;7.268;2023-05-10T01:35:10;13.00;99.90
49218;DHT22;35045;51.194;7.268;2023-05-10T01:37:45;12.90;99.90
49218;DHT22;35045;51.194;7.268;2023-05-10T01:43:33;12.90;99.90
49218;DHT22;35045;51.194;7.268;2023-05-10T01:46:07;12.90;99.90
49218;DHT22;35045;51.194;7.268;2023-05-10T01:48:41;13.00;99.90
49218;DHT22;35045;51.194;7.268;2023-05-10T01:51:19;13.00;99.90
49218;DHT22;35045;51.194;7.268;2023-05-10T01:53:48;13.10;99.90
49218;DHT22;35045;51.194;7.268;2023-05-10T01:56:15;13.00;99.90
49218;DHT22;35045;51.194;7.268;2023-05-10T01:58:43;13.00;99.90
49218;DHT22;35045;51.194;7.268;2023-05-10T02:01:12;13.10;99.90
49218;DHT22;35045;51.194;7.268;2023-05-10T02:03:39;13.20;99.90
49218;DHT22;35045;51.194;7.268;2023-05-10T02:06:07;13.20;99.90
49218;DHT22;35045;51.194;7.268;2023-05-10T02:08:36;13.20;99.90
49218;DHT22;35045;51.194;7.268;2023-05-10T02:11:03;13.20;99.90
49218;DHT22;35045;51.194;7.268;2023-05-10T02:13:34;13.10;99.90
49218;DHT22;35045;51.194;7.268;2023-05-10T02:16:02;13.10;99.90
49218;DHT22;35045;51.194;7.268;2023-05-10T02:18:29;13.00;99.90
49218;DHT22;35045;51.194;7.268;2023-05-10T02:20:58;13.00;99.90
49218;DHT22;35045;51.194;7.268;2023-05-10T02:23:25;13.00;99.90
49218;DHT22;35045;51.194;7.268;2023-05-10T02:25:53;12.90;99.90
49218;DHT22;35045;51.194;7.268;2023-05-10T02:28:22;12.90;99.90
49218;DHT22;35045;51.194;7.268;2023-05-10T02:30:49;12.90;99.90
49218;DHT22;35045;51.194;7.268;2023-05-10T02:33:16;12.90;99.90
49218;DHT22;35045;51.194;7.268;2023-05-10T02:35:43;12.90;99.90
49218;DHT22;35045;51.194;7.268;2023-05-10T02:38:10;12.90;99.90
49218;DHT22;35045;51.194;7.268;2023-05-10T02:40:38;12.90;99.90
49218;DHT22;35045;51.194;7.268;2023-05-10T02:43:09;12.90;99.90
49218;DHT22;35045;51.194;7.268;2023-05-10T02:45:36;12.80;99.90
49218;DHT22;35045;51.194;7.268;2023-05-10T02:48:02;12.80;99.90
49218;DHT22;35045;51.194;7.268;2023-05-10T02:50:30;12.80;99.90
49218;DHT22;35045;51.194;7.268;2023-05-10T02:53:01;12.80;99.90
49218;DHT22;35045;51.194;7.268;2023-05-10T02:55:32;12.80;99.90
49218;DHT22;35045;51.194;7.268;2023-05-10T02:58:01;12.80;99.90
49218;DHT22;35045;51.194;7.268;2023-05-10T03:00:28;12.80;99.90
49218;DHT22;35045;51.194;7.268;2023-05-10T03:02:54;12.80;99.90
49218;DHT22;35045;51.194;7.268;2023-05-10T03:05:21;12.80;99.90
49218;DHT22;35045;51.194;7.268;2023-05-10T03:07:47;12.70;99.90
49218;DHT22;35045;51.194;7.268;2023-05-10T03:10:14;12.80;99.90
49218;DHT22;35045;51.194;7.268;2023-05-10T03:12:52;12.70;99.90
49218;DHT22;35045;51.194;7.268;2023-05-10T03:18:01;12.60;99.90
49218;DHT22;35045;51.194;7.268;2023-05-10T03:20:42;12.60;99.90
49218;DHT22;35045;51.194;7.268;2023-05-10T03:25:46;12.60;99.90
49218;DHT22;35045;51.194;7.268;2023-05-10T03:28:14;12.50;99.90
49218;DHT22;35045;51.194;7.268;2023-05-10T03:30:42;12.50;99.90
49218;DHT22;35045;51.194;7.268;2023-05-10T03:33:09;12.40;99.90
49218;DHT22;35045;51.194;7.268;2023-05-10T03:35:36;12.40;99.90
49218;DHT22;35045;51.194;7.268;2023-05-10T03:38:02;12.40;99.90
49218;DHT22;35045;51.194;7.268;2023-05-10T03:40:29;12.40;99.90
49218;DHT22;35045;51.194;7.268;2023-05-10T03:42:58;12.40;99.90
49218;DHT22;35045;51.194;7.268;2023-05-10T03:45:24;12.50;99.90
49218;DHT22;35045;51.194;7.268;2023-05-10T03:47:50;12.50;99.90
49218;DHT22;35045;51.194;7.268;2023-05-10T03:50:16;12.50;99.90
49218;DHT22;35045;51.194;7.268;2023-05-10T03:52:44;12.50;99.90
49218;DHT22;35045;51.194;7.268;2023-05-10T03:55:10;12.60;99.90
49218;DHT22;35045;51.194;7.268;2023-05-10T03:57:36;12.60;99.90
49218;DHT22;35045;51.194;7.268;2023-05-10T04:00:03;12.60;99.90
49218;DHT22;35045;51.194;7.268;2023-05-10T04:02:29;12.60;99.90
49218;DHT22;35045;51.194;7.268;2023-05-10T04:04:56;12.60;99.90
49218;DHT22;35045;51.194;7.268;2023-05-10T04:07:22;12.70;99.90
49218;DHT22;35045;51.194;7.268;2023-05-10T04:09:48;12.80;99.90
49218;DHT22;35045;51.194;7.268;2023-05-10T04:12:14;12.90;99.90
49218;DHT22;35045;51.194;7.268;2023-05-10T04:14:41;12.90;99.90
49218;DHT22;35045;51.194;7.268;2023-05-10T04:17:07;13.00;99.90
49218;DHT22;35045;51.194;7.268;2023-05-10T04:19:33;13.00;99.90
49218;DHT22;35045;51.194;7.268;2023-05-10T04:21:59;12.90;99.90
49218;DHT22;35045;51.194;7.268;2023-05-10T04:24:25;12.90;99.90
49218;DHT22;35045;51.194;7.268;2023-05-10T04:26:51;12.90;99.90
49218;DHT22;35045;51.194;7.268;2023-05-10T04:29:20;12.80;99.90
49218;DHT22;35045;51.194;7.268;2023-05-10T04:31:46;12.80;99.90
49218;DHT22;35045;51.194;7.268;2023-05-10T04:34:12;12.80;99.90
49218;DHT22;35045;51.194;7.268;2023-05-10T04:36:38;12.90;99.90
49218;DHT22;35045;51.194;7.268;2023-05-10T04:39:04;12.90;99.90
49218;DHT22;35045;51.194;7.268;2023-05-10T04:41:31;12.90;99.90
49218;DHT22;35045;51.194;7.268;2023-05-10T04:43:57;13.00;99.90
49218;DHT22;35045;51.194;7.268;2023-05-10T04:46:23;13.00;99.90
49218;DHT22;35045;51.194;7.268;2023-05-10T04:48:49;13.00;99.90
49218;DHT22;35045;51.194;7.268;2023-05-10T04:51:15;13.00;99.90
49218;DHT22;35045;51.194;7.268;2023-05-10T04:53:41;13.10;99.90
49218;DHT22;35045;51.194;7.268;2023-05-10T04:56:09;13.10;99.90
49218;DHT22;35045;51.194;7.268;2023-05-10T04:58:35;13.10;99.90
49218;DHT22;35045;51.194;7.268;2023-05-10T05:01:08;13.10;99.90
49218;DHT22;35045;51.194;7.268;2023-05-10T05:03:36;13.10;99.90
49218;DHT22;35045;51.194;7.268;2023-05-10T05:06:03;13.10;99.90
49218;DHT22;35045;51.194;7.268;2023-05-10T05:08:29;13.20;99.90
49218;DHT22;35045;51.194;7.268;2023-05-10T05:10:55;13.30;99.90
49218;DHT22;35045;51.194;7.268;2023-05-10T05:13:21;13.30;99.90
49218;DHT22;35045;51.194;7.268;2023-05-10T05:15:47;13.30;99.90
49218;DHT22;35045;51.194;7.268;2023-05-10T05:18:13;13.40;99.90
49218;DHT22;35045;51.194;7.268;2023-05-10T05:20:40;13.40;99.90
49218;DHT22;35045;51.194;7.268;2023-05-10T05:23:06;13.40;99.90
49218;DHT22;35045;51.194;7.268;2023-05-10T05:25:32;13.40;99.90
49218;DHT22;35045;51.194;7.268;2023-05-10T05:27:58;13.40;99.90
49218;DHT22;35045;51.194;7.268;2023-05-10T05:30:24;13.50;99.90
49218;DHT22;35045;51.194;7.268;2023-05-10T05:32:50;13.40;99.90
49218;DHT22;35045;51.194;7.268;2023-05-10T05:35:17;13.40;99.90
49218;DHT22;35045;51.194;7.268;2023-05-10T05:37:43;13.30;99.90
49218;DHT22;35045;51.194;7.268;2023-05-10T05:40:12;13.30;99.90
49218;DHT22;35045;51.194;7.268;2023-05-10T05:42:39;13.20;99.90
49218;DHT22;35045;51.194;7.268;2023-05-10T05:45:05;13.10;99.90
49218;DHT22;35045;51.194;7.268;2023-05-10T05:47:32;13.10;99.90
49218;DHT22;35045;51.194;7.268;2023-05-10T05:49:58;13.00;99.90
49218;DHT22;35045;51.194;7.268;2023-05-10T05:52:24;13.00;99.90
49218;DHT22;35045;51.194;7.268;2023-05-10T05:54:50;12.90;99.90
49218;DHT22;35045;51.194;7.268;2023-05-10T05:57:17;12.90;99.90
49218;DHT22;35045;51.194;7.268;2023-05-10T05:59:43;12.90;99.90
49218;DHT22;35045;51.194;7.268;2023-05-10T06:02:10;12.90;99.90
49218;DHT22;35045;51.194;7.268;2023-05-10T06:04:36;12.90;99.90
49218;DHT22;35045;51.194;7.268;2023-05-10T06:07:03;13.00;99.90
49218;DHT22;35045;51.194;7.268;2023-05-10T06:09:29;13.00;99.90
49218;DHT22;35045;51.194;7.268;2023-05-10T06:11:55;13.00;99.90
49218;DHT22;35045;51.194;7.268;2023-05-10T06:14:21;13.00;99.90
49218;DHT22;35045;51.194;7.268;2023-05-10T06:16:47;13.00;99.90
49218;DHT22;35045;51.194;7.268;2023-05-10T06:19:14;13.10;99.90
49218;DHT22;35045;51.194;7.268;2023-05-10T06:21:40;13.20;99.90
49218;DHT22;35045;51.194;7.268;2023-05-10T06:24:06;13.30;99.90
49218;DHT22;35045;51.194;7.268;2023-05-10T06:26:33;13.30;99.90
49218;DHT22;35045;51.194;7.268;2023-05-10T06:28:59;13.40;99.90
49218;DHT22;35045;51.194;7.268;2023-05-10T06:31:25;13.40;99.90
49218;DHT22;35045;51.194;7.268;2023-05-10T06:33:51;13.50;99.90
49218;DHT22;35045;51.194;7.268;2023-05-10T06:36:18;13.50;99.90
49218;DHT22;35045;51.194;7.268;2023-05-10T06:38:44;13.60;99.90
49218;DHT22;35045;51.194;7.268;2023-05-10T06:41:10;13.50;99.90
49218;DHT22;35045;51.194;7.268;2023-05-10T06:43:37;13.50;99.90
49218;DHT22;35045;51.194;7.268;2023-05-10T06:46:07;13.40;99.90
49218;DHT22;35045;51.194;7.268;2023-05-10T06:48:33;13.40;99.90
49218;DHT22;35045;51.194;7.268;2023-05-10T06:50:59;13.40;99.90
49218;DHT22;35045;51.194;7.268;2023-05-10T06:53:26;13.40;99.90
49218;DHT22;35045;51.194;7.268;2023-05-10T06:55:52;13.40;99.90
49218;DHT22;35045;51.194;7.268;2023-05-10T06:58:18;13.40;99.90
49218;DHT22;35045;51.194;7.268;2023-05-10T07:00:44;13.40;99.90
49218;DHT22;35045;51.194;7.268;2023-05-10T07:03:11;13.30;99.90
49218;DHT22;35045;51.194;7.268;2023-05-10T07:05:37;13.40;99.90
49218;DHT22;35045;51.194;7.268;2023-05-10T07:08:03;13.40;99.90
49218;DHT22;35045;51.194;7.268;2023-05-10T07:10:29;13.30;99.90
49218;DHT22;35045;51.194;7.268;2023-05-10T07:12:56;13.30;99.90
49218;DHT22;35045;51.194;7.268;2023-05-10T07:15:22;13.30;99.90
49218;DHT22;35045;51.194;7.268;2023-05-10T07:17:48;13.40;99.90
49218;DHT22;35045;51.194;7.268;2023-05-10T07:20:15;13.40;99.90
49218;DHT22;35045;51.194;7.268;2023-05-10T07:22:41;13.30;99.90
49218;DHT22;35045;51.194;7.268;2023-05-10T07:25:07;13.40;99.90
49218;DHT22;35045;51.194;7.268;2023-05-10T07:27:33;13.50;99.90
49218;DHT22;35045;51.194;7.268;2023-05-10T07:30:00;13.50;99.90
49218;DHT22;35045;51.194;7.268;2023-05-10T07:32:26;13.50;99.90
49218;DHT22;35045;51.194;7.268;2023-05-10T07:34:52;13.40;99.90
49218;DHT22;35045;51.194;7.268;2023-05-10T07:37:18;13.50;99.90
49218;DHT22;35045;51.194;7.268;2023-05-10T07:39:44;13.40;99.90
49218;DHT22;35045;51.194;7.268;2023-05-10T07:42:11;13.50;99.90
49218;DHT22;35045;51.194;7.268;2023-05-10T07:44:37;13.60;99.90
49218;DHT22;35045;51.194;7.268;2023-05-10T07:47:03;13.60;99.90
49218;DHT22;35045;51.194;7.268;2023-05-10T07:49:29;13.60;99.90
49218;DHT22;35045;51.194;7.268;2023-05-10T07:51:55;13.50;99.90
49218;DHT22;35045;51.194;7.268;2023-05-10T07:54:21;13.40;99.90
49218;DHT22;35045;51.194;7.268;2023-05-10T07:56:48;13.40;99.90
49218;DHT22;35045;51.194;7.268;2023-05-10T07:59:17;13.40;99.90
49218;DHT22;35045;51.194;7.268;2023-05-10T08:01:44;13.40;99.90
49218;DHT22;35045;51.194;7.268;2023-05-10T08:04:10;13.50;99.90
49218;DHT22;35045;51.194;7.268;2023-05-10T08:06:37;13.40;99.90
49218;DHT22;35045;51.194;7.268;2023-05-10T08:09:03;13.40;99.90
49218;DHT22;35045;51.194;7.268;2023-05-10T08:11:29;13.40;99.90
49218;DHT22;35045;51.194;7.268;2023-05-10T08:13:56;13.40;99.90
49218;DHT22;35045;51.194;7.268;2023-05-10T08:16:22;13.50;99.90
49218;DHT22;35045;51.194;7.268;2023-05-10T08:18:48;13.70;99.90
49218;DHT22;35045;51.194;7.268;2023-05-10T08:21:15;13.70;99.90
49218;DHT22;35045;51.194;7.268;2023-05-10T08:23:41;13.80;99.90
49218;DHT22;35045;51.194;7.268;2023-05-10T08:26:09;13.90;99.90
49218;DHT22;35045;51.194;7.268;2023-05-10T08:28:36;14.10;99.90
49218;DHT22;35045;51.194;7.268;2023-05-10T08:31:02;14.20;99.90
49218;DHT22;35045;51.194;7.268;2023-05-10T08:33:28;14.20;99.90
49218;DHT22;35045;51.194;7.268;2023-05-10T08:35:54;14.10;99.90
49218;DHT22;35045;51.194;7.268;2023-05-10T08:38:20;14.10;99.90
49218;DHT22;35045;51.194;7.268;2023-05-10T08:40:48;14.10;99.90
49218;DHT22;35045;51.194;7.268;2023-05-10T08:43:15;14.10;99.90
49218;DHT22;35045;51.194;7.268;2023-05-10T08:45:43;14.00;99.90
49218;DHT22;35045;51.194;7.268;2023-05-10T08:48:11;14.10;99.90
49218;DHT22;35045;51.194;7.268;2023-05-10T08:50:39;14.00;99.90
49218;DHT22;35045;51.194;7.268;2023-05-10T08:53:13;14.10;99.90
49218;DHT22;35045;51.194;7.268;2023-05-10T08:55:40;14.20;99.90
49218;DHT22;35045;51.194;7.268;2023-05-10T08:58:09;14.30;99.90
49218;DHT22;35045;51.194;7.268;2023-05-10T09:00:36;14.50;99.90
49218;DHT22;35045;51.194;7.268;2023-05-10T09:03:04;14.70;99.90
49218;DHT22;35045;51.194;7.268;2023-05-10T09:05:31;14.70;99.90
49218;DHT22;35045;51.194;7.268;2023-05-10T09:07:58;14.80;99.90
49218;DHT22;35045;51.194;7.268;2023-05-10T09:10:26;14.90;99.90
49218;DHT22;35045;51.194;7.268;2023-05-10T09:12:54;14.80;99.90
49218;DHT22;35045;51.194;7.268;2023-05-10T09:15:22;14.90;99.90
49218;DHT22;35045;51.194;7.268;2023-05-10T09:17:49;15.10;99.90
49218;DHT22;35045;51.194;7.268;2023-05-10T09:20:16;15.30;99.90
49218;DHT22;35045;51.194;7.268;2023-05-10T09:22:43;15.40;99.90
49218;DHT22;35045;51.194;7.268;2023-05-10T09:25:11;15.40;99.90
49218;DHT22;35045;51.194;7.268;2023-05-10T09:27:39;15.50;99.90
49218;DHT22;35045;51.194;7.268;2023-05-10T09:30:07;15.50;99.90
49218;DHT22;35045;51.194;7.268;2023-05-10T09:32:44;15.40;99.90
49218;DHT22;35045;51.194;7.268;2023-05-10T09:35:19;15.30;99.90
49218;DHT22;35045;51.194;7.268;2023-05-10T09:37:47;15.00;99.90
49218;DHT22;35045;51.194;7.268;2023-05-10T09:40:16;14.80;99.90
49218;DHT22;35045;51.194;7.268;2023-05-10T09:45:20;14.30;99.90
49218;DHT22;35045;51.194;7.268;2023-05-10T09:47:47;14.30;99.90
49218;DHT22;35045;51.194;7.268;2023-05-10T09:50:13;14.30;99.90
49218;DHT22;35045;51.194;7.268;2023-05-10T09:52:50;14.10;99.90
49218;DHT22;35045;51.194;7.268;2023-05-10T09:55:19;14.10;99.90
49218;DHT22;35045;51.194;7.268;2023-05-10T09:57:47;14.30;99.90
49218;DHT22;35045;51.194;7.268;2023-05-10T10:00:20;14.60;99.90
49218;DHT22;35045;51.194;7.268;2023-05-10T10:02:48;14.80;99.90
49218;DHT22;35045;51.194;7.268;2023-05-10T10:05:20;14.90;99.90
49218;DHT22;35045;51.194;7.268;2023-05-10T10:07:46;15.00;99.90
49218;DHT22;35045;51.194;7.268;2023-05-10T10:10:15;15.20;99.90
49218;DHT22;35045;51.194;7.268;2023-05-10T10:12:41;15.40;99.90
49218;DHT22;35045;51.194;7.268;2023-05-10T10:15:08;15.50;99.90
49218;DHT22;35045;51.194;7.268;2023-05-10T10:17:36;15.30;99.90
49218;DHT22;35045;51.194;7.268;2023-05-10T10:20:04;15.40;99.90
49218;DHT22;35045;51.194;7.268;2023-05-10T10:22:30;15.40;99.90
49218;DHT22;35045;51.194;7.268;2023-05-10T10:24:57;15.20;99.90
49218;DHT22;35045;51.194;7.268;2023-05-10T10:27:44;15.00;99.90
49218;DHT22;35045;51.194;7.268;2023-05-10T10:33:13;14.80;99.90
49218;DHT22;35045;51.194;7.268;2023-05-10T10:35:53;14.60;99.90
49218;DHT22;35045;51.194;7.268;2023-05-10T10:38:20;14.50;99.90
49218;DHT22;35045;51.194;7.268;2023-05-10T10:40:47;14.60;99.90
49218;DHT22;35045;51.194;7.268;2023-05-10T10:43:27;14.60;99.90
49218;DHT22;35045;51.194;7.268;2023-05-10T10:46:16;14.60;99.90
49218;DHT22;35045;51.194;7.268;2023-05-10T10:49:09;14.40;99.90
49218;DHT22;35045;51.194;7.268;2023-05-10T10:51:39;14.20;99.90
49218;DHT22;35045;51.194;7.268;2023-05-10T10:54:11;14.00;99.90
49218;DHT22;35045;51.194;7.268;2023-05-10T10:56:38;14.00;99.90
49218;DHT22;35045;51.194;7.268;2023-05-10T10:59:04;14.00;99.90
49218;DHT22;35045;51.194;7.268;2023-05-10T11:01:34;14.10;99.90
49218;DHT22;35045;51.194;7.268;2023-05-10T11:06:31;14.20;99.90
49218;DHT22;35045;51.194;7.268;2023-05-10T11:09:11;14.40;99.90
49218;DHT22;35045;51.194;7.268;2023-05-10T11:11:52;14.80;99.90
49218;DHT22;35045;51.194;7.268;2023-05-10T11:14:20;15.00;99.90
49218;DHT22;35045;51.194;7.268;2023-05-10T11:16:47;15.00;99.90
49218;DHT22;35045;51.194;7.268;2023-05-10T11:19:14;14.90;99.90
49218;DHT22;35045;51.194;7.268;2023-05-10T11:24:30;14.70;99.90
49218;DHT22;35045;51.194;7.268;2023-05-10T11:26:56;14.60;99.90
49218;DHT22;35045;51.194;7.268;2023-05-10T11:29:23;14.60;99.90
49218;DHT22;35045;51.194;7.268;2023-05-10T11:31:49;14.40;99.90
49218;DHT22;35045;51.194;7.268;2023-05-10T11:34:30;14.40;99.90
49218;DHT22;35045;51.194;7.268;2023-05-10T11:36:57;14.50;99.90
49218;DHT22;35045;51.194;7.268;2023-05-10T11:39:30;14.60;99.90
49218;DHT22;35045;51.194;7.268;2023-05-10T11:41:57;14.80;99.90
49218;DHT22;35045;51.194;7.268;2023-05-10T11:44:29;15.00;99.90
49218;DHT22;35045;51.194;7.268;2023-05-10T11:47:01;15.10;99.90
49218;DHT22;35045;51.194;7.268;2023-05-10T11:49:27;15.30;99.90
49218;DHT22;35045;51.194;7.268;2023-05-10T11:52:06;15.60;99.90
49218;DHT22;35045;51.194;7.268;2023-05-10T11:54:33;16.00;99.90
49218;DHT22;35045;51.194;7.268;2023-05-10T11:57:00;16.10;99.90
49218;DHT22;35045;51.194;7.268;2023-05-10T11:59:26;15.90;99.90
49218;DHT22;35045;51.194;7.268;2023-05-10T12:01:53;15.70;99.90
49218;DHT22;35045;51.194;7.268;2023-05-10T12:04:19;15.60;99.90
49218;DHT22;35045;51.194;7.268;2023-05-10T12:06:46;15.40;99.90
49218;DHT22;35045;51.194;7.268;2023-05-10T12:09:14;15.40;99.90
49218;DHT22;35045;51.194;7.268;2023-05-10T12:11:40;15.20;99.90
49218;DHT22;35045;51.194;7.268;2023-05-10T12:14:08;15.00;99.90
49218;DHT22;35045;51.194;7.268;2023-05-10T12:16:35;14.90;99.90
49218;DHT22;35045;51.194;7.268;2023-05-10T12:19:02;14.80;99.90
49218;DHT22;35045;51.194;7.268;2023-05-10T12:21:29;14.70;99.90
49218;DHT22;35045;51.194;7.268;2023-05-10T12:24:01;14.70;99.90
49218;DHT22;35045;51.194;7.268;2023-05-10T12:26:28;14.90;99.90
49218;DHT22;35045;51.194;7.268;2023-05-10T12:28:54;15.10;99.90
49218;DHT22;35045;51.194;7.268;2023-05-10T12:31:20;15.40;99.90
49218;DHT22;35045;51.194;7.268;2023-05-10T12:33:47;15.70;99.90
49218;DHT22;35045;51.194;7.268;2023-05-10T12:36:16;15.80;99.90
49218;DHT22;35045;51.194;7.268;2023-05-10T12:38:44;15.70;99.90
49218;DHT22;35045;51.194;7.268;2023-05-10T12:41:16;15.70;99.90
49218;DHT22;35045;51.194;7.268;2023-05-10T12:43:42;15.60;99.90
49218;DHT22;35045;51.194;7.268;2023-05-10T12:46:10;15.50;99.90
49218;DHT22;35045;51.194;7.268;2023-05-10T12:48:37;15.20;99.90
49218;DHT22;35045;51.194;7.268;2023-05-10T12:51:04;15.00;99.90
49218;DHT22;35045;51.194;7.268;2023-05-10T12:53:31;15.00;99.90
49218;DHT22;35045;51.194;7.268;2023-05-10T12:55:57;14.90;99.90
49218;DHT22;35045;51.194;7.268;2023-05-10T12:58:23;15.10;99.90
49218;DHT22;35045;51.194;7.268;2023-05-10T13:00:58;15.20;99.90
49218;DHT22;35045;51.194;7.268;2023-05-10T13:03:25;15.50;99.90
49218;DHT22;35045;51.194;7.268;2023-05-10T13:05:51;15.70;99.90
49218;DHT22;35045;51.194;7.268;2023-05-10T13:08:17;15.80;99.90
49218;DHT22;35045;51.194;7.268;2023-05-10T13:10:43;15.80;99.90
49218;DHT22;35045;51.194;7.268;2023-05-10T13:13:10;15.90;99.90
49218;DHT22;35045;51.194;7.268;2023-05-10T13:15:36;15.90;99.90
49218;DHT22;35045;51.194;7.268;2023-05-10T13:18:02;15.80;99.90
49218;DHT22;35045;51.194;7.268;2023-05-10T13:20:29;15.80;99.90
49218;DHT22;35045;51.194;7.268;2023-05-10T13:22:55;15.70;99.90
49218;DHT22;35045;51.194;7.268;2023-05-10T13:25:21;15.70;99.90
49218;DHT22;35045;51.194;7.268;2023-05-10T13:27:47;15.60;99.90
49218;DHT22;35045;51.194;7.268;2023-05-10T13:30:13;15.60;99.90
49218;DHT22;35045;51.194;7.268;2023-05-10T13:32:39;15.60;99.90
49218;DHT22;35045;51.194;7.268;2023-05-10T13:35:06;15.80;99.90
49218;DHT22;35045;51.194;7.268;2023-05-10T13:37:32;16.20;99.90
49218;DHT22;35045;51.194;7.268;2023-05-10T13:40:01;16.60;99.90
49218;DHT22;35045;51.194;7.268;2023-05-10T13:42:27;17.30;99.90
49218;DHT22;35045;51.194;7.268;2023-05-10T13:44:54;17.70;99.90
49218;DHT22;35045;51.194;7.268;2023-05-10T13:47:20;17.70;99.90
49218;DHT22;35045;51.194;7.268;2023-05-10T13:49:47;17.50;99.90
49218;DHT22;35045;51.194;7.268;2023-05-10T13:52:13;17.40;99.90
49218;DHT22;35045;51.194;7.268;2023-05-10T13:54:40;17.20;99.90
49218;DHT22;35045;51.194;7.268;2023-05-10T13:57:06;17.20;99.90
49218;DHT22;35045;51.194;7.268;2023-05-10T13:59:32;17.00;99.90
49218;DHT22;35045;51.194;7.268;2023-05-10T14:01:59;17.30;99.90
49218;DHT22;35045;51.194;7.268;2023-05-10T14:04:26;17.40;99.90
49218;DHT22;35045;51.194;7.268;2023-05-10T14:06:52;17.40;99.90
49218;DHT22;35045;51.194;7.268;2023-05-10T14:09:19;17.10;99.90
49218;DHT22;35045;51.194;7.268;2023-05-10T14:11:45;16.80;99.90
49218;DHT22;35045;51.194;7.268;2023-05-10T14:14:12;16.70;99.90
49218;DHT22;35045;51.194;7.268;2023-05-10T14:16:43;16.50;99.90
49218;DHT22;35045;51.194;7.268;2023-05-10T14:19:10;16.30;99.90
49218;DHT22;35045;51.194;7.268;2023-05-10T14:21:36;16.30;99.90
49218;DHT22;35045;51.194;7.268;2023-05-10T14:24:02;16.30;99.90
49218;DHT22;35045;51.194;7.268;2023-05-10T14:26:28;16.40;99.90
49218;DHT22;35045;51.194;7.268;2023-05-10T14:28:55;16.60;99.90
49218;DHT22;35045;51.194;7.268;2023-05-10T14:31:21;16.60;99.90
49218;DHT22;35045;51.194;7.268;2023-05-10T14:33:49;16.60;99.90
49218;DHT22;35045;51.194;7.268;2023-05-10T14:36:15;16.50;99.90
49218;DHT22;35045;51.194;7.268;2023-05-10T14:38:41;16.60;99.90
49218;DHT22;35045;51.194;7.268;2023-05-10T14:41:07;16.90;99.90
49218;DHT22;35045;51.194;7.268;2023-05-10T14:43:35;17.40;99.90
49218;DHT22;35045;51.194;7.268;2023-05-10T14:46:02;17.60;99.90
49218;DHT22;35045;51.194;7.268;2023-05-10T14:48:28;17.70;99.90
49218;DHT22;35045;51.194;7.268;2023-05-10T14:50:54;18.70;99.90
49218;DHT22;35045;51.194;7.268;2023-05-10T14:53:20;19.70;99.90
49218;DHT22;35045;51.194;7.268;2023-05-10T14:55:46;20.40;99.90
49218;DHT22;35045;51.194;7.268;2023-05-10T14:58:13;20.00;99.90
49218;DHT22;35045;51.194;7.268;2023-05-10T15:00:40;19.50;99.90
49218;DHT22;35045;51.194;7.268;2023-05-10T15:03:06;20.10;99.90
49218;DHT22;35045;51.194;7.268;2023-05-10T15:05:32;19.90;99.90
49218;DHT22;35045;51.194;7.268;2023-05-10T15:07:58;19.60;99.90
49218;DHT22;35045;51.194;7.268;2023-05-10T15:10:24;19.30;99.90
49218;DHT22;35045;51.194;7.268;2023-05-10T15:12:51;19.20;99.90
49218;DHT22;35045;51.194;7.268;2023-05-10T15:15:17;19.10;99.90
49218;DHT22;35045;51.194;7.268;2023-05-10T15:17:43;18.70;99.90
49218;DHT22;35045;51.194;7.268;2023-05-10T15:20:09;18.30;99.90
49218;DHT22;35045;51.194;7.268;2023-05-10T15:22:36;18.20;99.90
49218;DHT22;35045;51.194;7.268;2023-05-10T15:25:02;18.30;99.90
49218;DHT22;35045;51.194;7.268;2023-05-10T15:27:28;19.90;99.90
49218;DHT22;35045;51.194;7.268;2023-05-10T15:29:55;21.90;99.70
49218;DHT22;35045;51.194;7.268;2023-05-10T15:32:21;23.40;96.90
49218;DHT22;35045;51.194;7.268;2023-05-10T15:34:47;24.00;96.90
49218;DHT22;35045;51.194;7.268;2023-05-10T15:37:13;23.40;96.50
49218;DHT22;35045;51.194;7.268;2023-05-10T15:39:40;23.30;96.90
49218;DHT22;35045;51.194;7.268;2023-05-10T15:42:07;23.80;96.10
49218;DHT22;35045;51.194;7.268;2023-05-10T15:44:33;23.60;96.40
49218;DHT22;35045;51.194;7.268;2023-05-10T15:47:01;23.70;96.20
49218;DHT22;35045;51.194;7.268;2023-05-10T15:49:28;24.40;95.00
49218;DHT22;35045;51.194;7.268;2023-05-10T15:51:54;24.10;95.40
49218;DHT22;35045;51.194;7.268;2023-05-10T15:54:21;22.90;96.10
49218;DHT22;35045;51.194;7.268;2023-05-10T15:56:47;21.90;97.00